Time;durP1;ratioP1;P1;durP2;ratioP2;P2;SDS_P1;SDS_P2;PMS_P1;PMS_P2;Temp;Humidity;BMP_temperature;BMP_pressure;BME280_temperature;BME280_humidity;BME280_pressure;Samples;Min_cycle;Max_cycle;Signal;HPM_P1;HPM_P2
2022/03/09 00:05:57;;;;;;;6.45;3.53;;;1.90;99.90;;;;;;11885795;29;20111;-83
2022/03/09 00:12:00;;;;;;;6.63;3.38;;;1.80;99.90;;;;;;11882365;29;20081;-83
2022/03/09 00:18:02;;;;;;;8.27;3.65;;;1.70;99.90;;;;;;11882966;29;20054;-82
2022/03/09 00:24:04;;;;;;;5.80;3.25;;;1.70;99.90;;;;;;11892759;29;20094;-83
2022/03/09 00:30:07;;;;;;;7.00;3.28;;;2.00;99.90;;;;;;11881391;29;20138;-83
2022/03/09 00:36:10;;;;;;;7.72;3.45;;;2.40;99.90;;;;;;11891316;29;20127;-83
2022/03/09 00:42:12;;;;;;;7.22;3.50;;;2.80;99.90;;;;;;11912390;29;20642;-83
2022/03/09 00:48:14;;;;;;;6.03;3.50;;;3.00;99.90;;;;;;11913901;29;20108;-83
2022/03/09 00:54:17;;;;;;;6.32;3.33;;;3.20;99.90;;;;;;11884065;29;20051;-83
2022/03/09 01:00:19;;;;;;;7.57;3.30;;;3.00;99.90;;;;;;11884700;29;20059;-83
2022/03/09 01:06:21;;;;;;;7.68;3.53;;;3.20;99.90;;;;;;11887475;29;20182;-83
2022/03/09 01:12:22;;;;;;;8.75;3.22;;;3.10;99.90;;;;;;11895643;29;20406;-83
2022/03/09 01:18:24;;;;;;;7.57;4.03;;;2.80;99.90;;;;;;11888102;29;20461;-83
2022/03/09 01:24:26;;;;;;;7.18;3.67;;;2.60;99.90;;;;;;11892533;29;20047;-83
2022/03/09 01:30:28;;;;;;;9.10;4.55;;;2.40;99.90;;;;;;11882722;29;20058;-83
2022/03/09 01:36:30;;;;;;;6.82;3.38;;;2.20;99.90;;;;;;11912735;29;20153;-82
2022/03/09 01:42:32;;;;;;;7.28;3.78;;;2.00;99.90;;;;;;11907563;29;20480;-83
2022/03/09 01:48:33;;;;;;;9.98;3.85;;;2.00;99.90;;;;;;11878333;29;20467;-82
2022/03/09 01:54:35;;;;;;;7.22;3.85;;;2.00;99.90;;;;;;11893253;29;20055;-82
2022/03/09 02:00:37;;;;;;;9.35;3.58;;;1.90;99.90;;;;;;11903851;29;20054;-83
2022/03/09 02:06:41;;;;;;;7.32;3.58;;;1.70;99.90;;;;;;11886279;29;20154;-83
2022/03/09 02:12:42;;;;;;;8.15;3.72;;;1.70;99.90;;;;;;11883948;29;20104;-82
2022/03/09 02:18:44;;;;;;;6.55;3.38;;;1.70;99.90;;;;;;11877048;29;20055;-83
2022/03/09 02:24:51;;;;;;;11.10;4.00;;;1.70;99.90;;;;;;11873973;29;20059;-83
2022/03/09 02:30:57;;;;;;;6.13;3.45;;;1.80;99.90;;;;;;11881816;29;20128;-83
2022/03/09 02:36:59;;;;;;;7.57;4.03;;;1.90;99.90;;;;;;11885332;29;20311;-83
2022/03/09 02:43:01;;;;;;;8.23;4.13;;;2.00;99.90;;;;;;11874806;29;20516;-82
2022/03/09 02:49:03;;;;;;;6.72;4.00;;;1.80;99.90;;;;;;11894569;29;20138;-83
2022/03/09 02:55:06;;;;;;;8.30;4.32;;;1.40;99.90;;;;;;11873676;29;20136;-83
2022/03/09 03:01:14;;;;;;;8.32;4.53;;;1.50;99.90;;;;;;11874900;29;20118;-83
2022/03/09 03:07:17;;;;;;;7.87;3.87;;;1.50;99.90;;;;;;11873671;29;20120;-82
2022/03/09 03:13:18;;;;;;;10.70;4.60;;;1.60;99.90;;;;;;11888521;29;20119;-83
2022/03/09 03:19:20;;;;;;;12.55;4.70;;;1.50;99.90;;;;;;11886925;29;20097;-83
2022/03/09 03:25:22;;;;;;;10.18;4.10;;;1.20;99.90;;;;;;11884074;29;20155;-83
2022/03/09 03:31:25;;;;;;;7.68;4.00;;;1.00;99.90;;;;;;11885350;29;20456;-81
2022/03/09 03:37:26;;;;;;;8.35;4.70;;;1.00;99.90;;;;;;11892070;29;20526;-83
2022/03/09 03:43:28;;;;;;;9.65;4.00;;;1.20;99.90;;;;;;11901511;29;20741;-82
2022/03/09 03:49:30;;;;;;;9.35;4.00;;;1.20;99.90;;;;;;11885496;29;20063;-83
2022/03/09 03:55:33;;;;;;;7.72;3.92;;;1.20;99.90;;;;;;11882467;29;20055;-83
2022/03/09 04:01:34;;;;;;;8.35;4.40;;;1.10;99.90;;;;;;11887851;29;20051;-82
2022/03/09 04:07:36;;;;;;;9.25;4.40;;;1.20;99.90;;;;;;11877092;29;20058;-83
2022/03/09 04:13:39;;;;;;;6.68;4.00;;;1.10;99.90;;;;;;11882262;29;20055;-83
2022/03/09 04:19:40;;;;;;;13.57;5.00;;;1.00;99.90;;;;;;11882173;29;20063;-83
2022/03/09 04:25:42;;;;;;;7.72;4.20;;;1.20;99.90;;;;;;11878444;29;20062;-82
2022/03/09 04:31:44;;;;;;;7.82;4.05;;;1.30;99.90;;;;;;11898190;29;20980;-82
2022/03/09 04:37:46;;;;;;;8.85;4.20;;;1.50;99.90;;;;;;11880589;29;20857;-82
2022/03/09 04:43:49;;;;;;;11.40;4.22;;;1.50;99.90;;;;;;11893676;29;20134;-82
2022/03/09 04:49:51;;;;;;;6.70;3.97;;;1.30;99.90;;;;;;11883033;29;20572;-82
2022/03/09 04:55:54;;;;;;;9.73;4.97;;;1.10;99.90;;;;;;11877188;29;20613;-82
2022/03/09 05:01:56;;;;;;;10.95;4.88;;;0.90;99.90;;;;;;11876615;29;20055;-82
2022/03/09 05:07:58;;;;;;;9.15;4.47;;;0.60;99.90;;;;;;11887569;29;20460;-82
2022/03/09 05:14:00;;;;;;;8.18;3.88;;;0.50;99.90;;;;;;11877102;29;20144;-82
2022/03/09 05:20:02;;;;;;;11.30;4.50;;;0.60;99.90;;;;;;11889077;29;20062;-82
2022/03/09 05:26:04;;;;;;;8.90;4.43;;;0.70;99.90;;;;;;11893493;29;20127;-83
2022/03/09 05:32:07;;;;;;;8.25;4.60;;;0.30;99.90;;;;;;11887479;29;20050;-83
2022/03/09 05:38:09;;;;;;;9.93;4.47;;;0.20;99.90;;;;;;11878903;29;20117;-82
2022/03/09 05:44:10;;;;;;;9.48;4.30;;;0.00;99.90;;;;;;11885787;29;20071;-83
2022/03/09 05:50:12;;;;;;;8.02;4.63;;;-0.20;99.90;;;;;;11877848;29;20516;-83
2022/03/09 05:56:14;;;;;;;10.52;4.70;;;0.20;99.90;;;;;;11880920;29;20413;-83
2022/03/09 06:02:16;;;;;;;9.82;5.28;;;0.40;99.90;;;;;;11891867;29;20097;-83
2022/03/09 06:08:21;;;;;;;8.65;4.57;;;0.40;99.90;;;;;;11878950;29;20085;-83
2022/03/09 06:14:23;;;;;;;13.43;5.60;;;0.30;99.90;;;;;;11877504;29;20105;-82
2022/03/09 06:20:25;;;;;;;8.02;4.22;;;0.40;99.90;;;;;;11876931;29;20113;-83
2022/03/09 06:26:27;;;;;;;12.77;5.10;;;0.50;99.90;;;;;;11879114;29;20623;-83
2022/03/09 06:32:29;;;;;;;17.13;5.55;;;0.40;99.90;;;;;;11881548;29;20567;-83
2022/03/09 06:38:31;;;;;;;12.23;4.60;;;0.50;99.90;;;;;;11894694;29;20075;-83
2022/03/09 06:44:35;;;;;;;9.20;4.55;;;1.10;99.90;;;;;;11866990;29;20086;-83
2022/03/09 06:50:37;;;;;;;;;;;1.60;99.90;;;;;;11879650;29;20058;-83
2022/03/09 06:56:39;;;;;;;10.10;4.43;;;2.30;99.90;;;;;;11884264;29;20025;-83
2022/03/09 07:02:42;;;;;;;8.07;4.57;;;2.70;99.90;;;;;;11887407;29;20067;-83
2022/03/09 07:08:44;;;;;;;10.38;5.05;;;3.10;99.90;;;;;;11885076;29;20059;-84
2022/03/09 07:14:46;;;;;;;9.38;4.53;;;3.20;99.90;;;;;;11875043;29;20105;-83
2022/03/09 07:20:48;;;;;;;8.98;5.18;;;3.10;99.90;;;;;;11891147;29;20072;-83
2022/03/09 07:26:50;;;;;;;8.90;5.25;;;3.00;99.90;;;;;;11879506;29;20142;-83
2022/03/09 07:32:52;;;;;;;9.00;5.57;;;2.90;99.90;;;;;;11874233;29;20103;-83
2022/03/09 07:38:56;;;;;;;9.93;5.60;;;3.00;99.90;;;;;;11878138;29;20106;-83
2022/03/09 07:45:14;;;;;;;11.20;5.85;;;2.80;99.90;;;;;;11878793;29;20210;-83
2022/03/09 07:51:17;;;;;;;13.23;6.13;;;2.80;99.90;;;;;;11875417;29;20063;-83
2022/03/09 07:57:18;;;;;;;15.68;6.68;;;3.20;99.90;;;;;;11880864;29;20339;-83
2022/03/09 08:03:20;;;;;;;11.00;6.00;;;3.70;99.90;;;;;;11879809;29;20105;-83
2022/03/09 08:09:31;;;;;;;11.65;6.43;;;3.90;99.90;;;;;;11900746;29;20039;-83
2022/03/09 08:15:34;;;;;;;12.10;6.28;;;3.70;99.90;;;;;;11896532;29;20055;-83
2022/03/09 08:21:37;;;;;;;12.65;6.70;;;3.90;99.90;;;;;;11890965;29;20086;-83
2022/03/09 08:27:39;;;;;;;10.10;5.97;;;4.00;99.90;;;;;;11887956;29;20129;-83
2022/03/09 08:33:42;;;;;;;11.60;7.35;;;4.20;99.90;;;;;;11878456;29;20055;-83
2022/03/09 08:39:47;;;;;;;13.15;6.40;;;4.30;99.90;;;;;;11883412;29;20067;-83
2022/03/09 08:45:50;;;;;;;13.35;5.80;;;4.50;99.90;;;;;;11893380;29;20504;-83
2022/03/09 08:51:52;;;;;;;8.75;5.40;;;4.80;99.90;;;;;;11885068;29;21135;-84
2022/03/09 08:57:54;;;;;;;9.30;5.95;;;5.10;99.90;;;;;;11878283;29;20499;-83
2022/03/09 09:03:56;;;;;;;15.18;5.35;;;5.40;99.90;;;;;;11893012;29;20343;-83
2022/03/09 09:09:58;;;;;;;9.13;4.53;;;5.70;99.90;;;;;;11885500;29;20412;-84
2022/03/09 09:16:00;;;;;;;7.85;4.65;;;7.00;99.90;;;;;;11892142;29;20047;-84
2022/03/09 09:22:03;;;;;;;10.30;4.75;;;7.60;99.90;;;;;;11886462;29;20057;-84
2022/03/09 09:28:05;;;;;;;10.02;4.82;;;7.90;99.90;;;;;;11883362;29;20082;-84
2022/03/09 09:34:10;;;;;;;8.02;4.22;;;8.10;99.90;;;;;;11877472;29;20131;-84
2022/03/09 09:40:13;;;;;;;;;;;8.30;99.90;;;;;;11875289;29;20138;-84
2022/03/09 09:46:15;;;;;;;7.63;4.40;;;8.50;99.90;;;;;;11878995;29;19932;-85
2022/03/09 09:52:19;;;;;;;9.32;4.80;;;8.50;99.90;;;;;;11881519;29;20055;-85
2022/03/09 09:58:22;;;;;;;8.18;4.70;;;8.80;99.90;;;;;;11874840;29;20054;-85
2022/03/09 10:04:24;;;;;;;9.07;4.50;;;8.90;99.90;;;;;;11888471;29;20516;-84
2022/03/09 10:10:26;;;;;;;7.13;4.70;;;9.00;99.90;;;;;;11875691;29;20158;-85
2022/03/09 10:16:30;;;;;;;8.73;5.32;;;9.10;99.90;;;;;;11874091;29;20450;-85
2022/03/09 10:22:37;;;;;;;6.10;4.22;;;9.40;99.90;;;;;;11876291;29;20057;-85
2022/03/09 10:29:07;;;;;;;8.43;4.85;;;9.40;99.90;;;;;;11884458;29;20093;-85
2022/03/09 10:35:15;;;;;;;8.07;4.33;;;9.70;99.90;;;;;;11873994;29;20129;-85
2022/03/09 10:41:32;;;;;;;8.15;5.05;;;9.90;99.90;;;;;;11876221;29;20062;-84
2022/03/09 10:47:37;;;;;;;10.20;5.50;;;10.10;99.90;;;;;;11877822;29;20063;-86
2022/03/09 10:53:45;;;;;;;8.25;5.00;;;10.10;99.90;;;;;;11884475;29;20904;-85
2022/03/09 10:59:52;;;;;;;8.25;5.05;;;9.90;99.90;;;;;;11875073;29;20680;-85
2022/03/09 11:05:57;;;;;;;9.98;6.05;;;10.10;99.90;;;;;;11870945;29;20055;-85
2022/03/09 11:12:00;;;;;;;9.20;5.65;;;10.20;99.90;;;;;;11872300;29;20082;-85
2022/03/09 11:18:02;;;;;;;8.30;5.40;;;10.40;99.90;;;;;;11888173;29;20097;-85
2022/03/09 11:24:09;;;;;;;8.68;5.35;;;10.60;99.90;;;;;;11876629;29;20504;-85
2022/03/09 11:30:21;;;;;;;7.72;4.82;;;10.50;99.90;;;;;;11878687;29;20063;-85
2022/03/09 11:36:24;;;;;;;8.52;5.10;;;10.60;99.90;;;;;;11882219;29;20059;-85
2022/03/09 11:42:28;;;;;;;8.80;4.72;;;10.70;99.90;;;;;;11875520;29;20055;-85
2022/03/09 11:48:49;;;;;;;13.02;5.68;;;10.80;99.90;;;;;;11875562;29;20054;-86
2022/03/09 11:54:58;;;;;;;10.48;4.88;;;11.00;99.90;;;;;;11874709;29;20108;-85
2022/03/09 12:01:02;;;;;;;9.75;4.97;;;11.10;99.90;;;;;;11878938;29;20055;-86
2022/03/09 12:07:05;;;;;;;8.95;4.90;;;11.20;99.90;;;;;;11866969;29;20108;-85
2022/03/09 12:13:25;;;;;;;7.18;4.65;;;11.40;99.90;;;;;;11879686;29;20056;-85
2022/03/09 12:19:28;;;;;;;9.52;5.10;;;11.50;99.90;;;;;;11879605;29;20154;-85
2022/03/09 12:25:41;;;;;;;9.43;5.40;;;11.80;99.90;;;;;;11884810;29;20062;-86
2022/03/09 12:31:44;;;;;;;7.73;4.57;;;11.90;99.90;;;;;;11879893;29;20124;-85
2022/03/09 12:37:51;;;;;;;7.55;4.40;;;12.10;99.90;;;;;;11875266;29;20066;-85
2022/03/09 12:43:55;;;;;;;8.98;4.65;;;12.10;99.90;;;;;;11873046;29;21016;-85
2022/03/09 12:49:57;;;;;;;6.80;3.95;;;12.20;99.90;;;;;;11884603;29;20055;-85
2022/03/09 12:56:13;;;;;;;7.53;4.25;;;12.40;99.90;;;;;;11873331;29;20051;-85
2022/03/09 13:02:43;;;;;;;8.55;4.20;;;12.20;99.90;;;;;;11885073;29;20082;-85
2022/03/09 13:08:45;;;;;;;7.05;4.45;;;12.30;99.90;;;;;;11879287;29;20055;-85
2022/03/09 13:14:52;;;;;;;7.13;4.15;;;12.30;99.90;;;;;;11881284;29;20115;-85
2022/03/09 13:20:55;;;;;;;6.05;4.00;;;12.20;99.90;;;;;;11879872;29;20062;-85
2022/03/09 13:26:57;;;;;;;6.35;4.25;;;12.10;99.90;;;;;;11892883;29;20120;-85
2022/03/09 13:33:12;;;;;;;6.45;3.90;;;12.10;99.90;;;;;;11887061;29;20064;-85
2022/03/09 13:39:14;;;;;;;7.57;4.35;;;12.20;99.90;;;;;;11876259;29;20604;-85
2022/03/09 13:45:18;;;;;;;8.95;4.20;;;12.10;99.90;;;;;;11895387;29;20078;-85
2022/03/09 13:51:32;;;;;;;8.52;4.93;;;12.20;99.90;;;;;;11891537;29;20050;-84
2022/03/09 13:57:38;;;;;;;10.80;4.32;;;12.40;99.90;;;;;;11885440;29;20540;-85
2022/03/09 14:03:43;;;;;;;6.22;4.15;;;12.40;99.90;;;;;;11875120;29;20116;-85
2022/03/09 14:10:12;;;;;;;5.53;3.80;;;12.30;99.90;;;;;;11877994;29;20081;-85
2022/03/09 14:16:14;;;;;;;8.90;4.43;;;12.40;99.90;;;;;;11888456;29;20066;-85
2022/03/09 14:22:16;;;;;;;7.45;4.45;;;12.30;99.90;;;;;;11879074;29;20047;-85
2022/03/09 14:28:18;;;;;;;9.00;4.30;;;12.30;99.90;;;;;;11875413;29;20100;-84
2022/03/09 14:34:26;;;;;;;7.10;4.43;;;12.20;99.90;;;;;;11883572;29;20059;-84
2022/03/09 14:40:28;;;;;;;6.03;3.85;;;12.10;99.90;;;;;;11877653;29;20050;-84
2022/03/09 14:46:30;;;;;;;7.22;4.38;;;12.10;99.90;;;;;;11891884;29;20070;-84
2022/03/09 14:52:32;;;;;;;8.10;4.22;;;12.10;99.90;;;;;;11873892;29;20142;-84
2022/03/09 14:58:42;;;;;;;9.80;4.05;;;12.10;99.90;;;;;;11875909;29;20068;-85
2022/03/09 15:04:43;;;;;;;8.02;4.03;;;12.10;99.90;;;;;;11880050;29;20047;-84
2022/03/09 15:10:45;;;;;;;5.47;4.05;;;12.00;99.90;;;;;;11879224;29;20119;-85
2022/03/09 15:16:47;;;;;;;6.78;4.00;;;12.00;99.90;;;;;;11875181;29;20103;-85
2022/03/09 15:22:49;;;;;;;7.85;4.38;;;12.00;99.90;;;;;;11871764;29;20058;-85
2022/03/09 15:29:03;;;;;;;8.68;4.18;;;12.10;99.90;;;;;;11876163;29;20082;-84
2022/03/09 15:35:05;;;;;;;6.70;4.10;;;11.90;99.90;;;;;;11880762;29;20533;-84
2022/03/09 15:41:07;;;;;;;6.88;4.30;;;11.90;99.90;;;;;;11885786;29;20136;-84
2022/03/09 15:47:09;;;;;;;9.32;4.55;;;11.90;99.90;;;;;;11881984;29;20059;-85
2022/03/09 15:53:11;;;;;;;7.65;4.80;;;11.90;99.90;;;;;;11871704;29;20098;-84
2022/03/09 15:59:13;;;;;;;8.40;4.18;;;11.90;99.90;;;;;;11875289;29;20067;-84
2022/03/09 16:05:16;;;;;;;10.27;4.32;;;11.90;99.90;;;;;;11864490;29;20051;-84
2022/03/09 16:11:18;;;;;;;6.60;4.30;;;11.70;99.90;;;;;;11866994;29;20108;-84
2022/03/09 16:17:20;;;;;;;7.78;5.28;;;11.60;99.90;;;;;;11867679;29;20104;-85
2022/03/09 16:23:24;;;;;;;9.20;5.07;;;11.60;99.90;;;;;;11877478;29;20116;-84
2022/03/09 16:29:25;;;;;;;10.55;7.18;;;11.40;99.90;;;;;;11884421;29;20505;-84
2022/03/09 16:35:28;;;;;;;9.88;5.45;;;11.10;99.90;;;;;;11880705;29;20147;-84
2022/03/09 16:41:30;;;;;;;8.30;4.50;;;10.90;99.90;;;;;;11877684;29;20054;-83
2022/03/09 16:47:32;;;;;;;8.43;5.32;;;10.90;99.90;;;;;;11878846;29;20059;-84
2022/03/09 16:53:34;;;;;;;7.60;4.68;;;10.60;99.90;;;;;;11886317;29;20576;-84
2022/03/09 16:59:35;;;;;;;10.52;6.05;;;10.40;99.90;;;;;;11876233;29;20058;-84
2022/03/09 17:05:38;;;;;;;6.20;4.15;;;10.40;99.90;;;;;;11884094;29;20444;-84
2022/03/09 17:11:40;;;;;;;11.55;4.05;;;10.30;99.90;;;;;;11890796;29;20076;-84
2022/03/09 17:17:42;;;;;;;13.20;4.95;;;10.00;99.90;;;;;;11879271;29;20083;-84
2022/03/09 17:23:44;;;;;;;9.60;4.05;;;9.60;99.90;;;;;;11878744;29;20146;-84
2022/03/09 17:29:46;;;;;;;10.05;4.35;;;9.20;99.90;;;;;;11879084;29;20584;-84
2022/03/09 17:35:48;;;;;;;8.05;4.00;;;8.90;99.90;;;;;;11875320;29;20055;-83
2022/03/09 17:41:50;;;;;;;8.88;4.38;;;8.40;99.90;;;;;;11896137;29;20078;-83
2022/03/09 17:47:52;;;;;;;15.10;4.13;;;8.20;99.90;;;;;;11889366;29;20719;-84
2022/03/09 17:53:55;;;;;;;8.63;3.92;;;8.00;99.90;;;;;;11876599;29;21023;-83
2022/03/09 17:59:58;;;;;;;8.27;4.20;;;7.70;99.90;;;;;;11879013;29;20085;-83
2022/03/09 18:05:59;;;;;;;8.30;4.78;;;7.50;99.90;;;;;;11857804;29;20465;-83
2022/03/09 18:12:03;;;;;;;6.80;4.22;;;7.20;99.90;;;;;;11863623;29;20054;-83
2022/03/09 18:18:06;;;;;;;9.23;4.90;;;6.90;99.90;;;;;;11850555;29;20108;-83
2022/03/09 18:24:08;;;;;;;7.88;4.50;;;6.60;99.90;;;;;;11880488;29;20122;-82
2022/03/09 18:30:10;;;;;;;7.60;4.53;;;6.40;99.90;;;;;;11888627;29;20067;-82
2022/03/09 18:36:12;;;;;;;10.65;6.20;;;6.30;99.90;;;;;;11875962;29;20059;-82
2022/03/09 18:42:13;;;;;;;10.20;5.43;;;6.30;99.90;;;;;;11878695;29;20060;-82
2022/03/09 18:48:15;;;;;;;10.63;6.47;;;6.30;99.90;;;;;;11875269;29;20055;-82
2022/03/09 18:54:17;;;;;;;10.73;6.22;;;6.20;99.90;;;;;;11873132;29;20135;-82
2022/03/09 19:00:19;;;;;;;10.48;6.68;;;6.10;99.90;;;;;;11879433;29;20055;-82
2022/03/09 19:06:21;;;;;;;12.48;6.43;;;6.00;99.90;;;;;;11873942;29;20498;-82
2022/03/09 19:12:22;;;;;;;11.77;7.18;;;5.90;99.90;;;;;;11871302;29;20493;-82
2022/03/09 19:18:24;;;;;;;11.95;6.85;;;5.90;99.90;;;;;;11873584;29;20570;-82
2022/03/09 19:24:28;;;;;;;17.60;8.85;;;5.70;99.90;;;;;;11885276;29;20075;-82
2022/03/09 19:30:31;;;;;;;15.40;6.97;;;5.70;99.90;;;;;;11887597;29;20121;-82
2022/03/09 19:36:33;;;;;;;19.15;11.10;;;5.70;99.90;;;;;;11883373;29;20062;-82
2022/03/09 19:42:35;;;;;;;20.23;10.88;;;5.70;99.90;;;;;;11873012;29;20109;-82
2022/03/09 19:48:37;;;;;;;13.98;8.20;;;5.60;99.90;;;;;;11887248;29;20114;-82
2022/03/09 19:54:39;;;;;;;19.27;10.63;;;5.60;99.90;;;;;;11885083;29;21446;-84
2022/03/09 20:00:42;;;;;;;23.23;11.40;;;5.80;99.90;;;;;;11883356;29;20488;-81
2022/03/09 20:06:44;;;;;;;72.30;27.23;;;5.60;99.90;;;;;;11889025;29;21105;-82
2022/03/09 20:12:46;;;;;;;96.57;34.47;;;5.40;99.90;;;;;;11888925;29;20053;-82
2022/03/09 20:18:48;;;;;;;27.45;15.68;;;5.20;99.90;;;;;;11887880;29;20055;-82
2022/03/09 20:24:50;;;;;;;15.63;9.52;;;5.10;99.90;;;;;;11877992;29;20080;-82
2022/03/09 20:30:51;;;;;;;13.85;8.23;;;5.00;99.90;;;;;;11884386;29;20050;-84
2022/03/09 20:36:53;;;;;;;12.35;7.40;;;5.00;99.90;;;;;;11881091;29;20513;-81
2022/03/09 20:42:55;;;;;;;13.70;8.05;;;5.10;99.90;;;;;;11878262;29;20584;-82
2022/03/09 20:48:59;;;;;;;13.32;7.93;;;5.10;99.90;;;;;;11888006;29;20062;-84
2022/03/09 20:55:03;;;;;;;16.27;8.82;;;5.00;99.90;;;;;;11886351;29;20051;-82
2022/03/09 21:01:05;;;;;;;13.15;7.53;;;4.90;99.90;;;;;;11875715;29;20123;-82
2022/03/09 21:07:07;;;;;;;19.42;11.90;;;4.70;99.90;;;;;;11882704;29;20188;-81
2022/03/09 21:13:09;;;;;;;13.73;6.80;;;4.70;99.90;;;;;;11895663;29;20055;-81
2022/03/09 21:19:11;;;;;;;10.77;6.70;;;5.10;99.90;;;;;;11874045;29;20062;-81
2022/03/09 21:25:13;;;;;;;11.65;6.32;;;5.50;99.90;;;;;;11877972;29;20055;-81
2022/03/09 21:31:15;;;;;;;11.55;5.50;;;5.80;99.90;;;;;;11877333;29;20505;-81
2022/03/09 21:37:17;;;;;;;10.23;6.68;;;6.10;99.90;;;;;;11884904;29;20094;-82
2022/03/09 21:43:19;;;;;;;10.10;6.88;;;6.60;99.90;;;;;;11892293;29;20054;-82
2022/03/09 21:49:21;;;;;;;13.55;6.35;;;6.50;99.90;;;;;;11887376;29;20208;-82
2022/03/09 21:55:23;;;;;;;11.57;5.93;;;6.80;99.90;;;;;;11878941;29;20668;-82
2022/03/09 22:01:25;;;;;;;10.27;6.15;;;6.80;99.90;;;;;;11876477;29;20055;-82
2022/03/09 22:07:27;;;;;;;10.88;6.15;;;7.00;99.90;;;;;;11884595;29;20059;-81
2022/03/09 22:13:29;;;;;;;10.30;6.10;;;7.20;99.90;;;;;;11888236;29;20051;-81
2022/03/09 22:19:31;;;;;;;13.48;6.78;;;7.20;99.90;;;;;;11876467;29;20512;-83
2022/03/09 22:25:33;;;;;;;9.93;6.30;;;7.20;99.90;;;;;;11875325;29;20054;-82
2022/03/09 22:31:34;;;;;;;11.00;6.40;;;7.20;99.90;;;;;;11878459;29;20060;-82
2022/03/09 22:37:36;;;;;;;10.68;6.35;;;7.10;99.90;;;;;;11872964;29;20170;-82
2022/03/09 22:43:38;;;;;;;13.80;7.57;;;6.90;99.90;;;;;;11874502;29;20120;-82
2022/03/09 22:49:40;;;;;;;11.60;6.63;;;7.00;99.90;;;;;;11883309;29;20146;-82
2022/03/09 22:55:42;;;;;;;12.18;6.75;;;7.00;99.90;;;;;;11873265;29;20044;-82
2022/03/09 23:01:44;;;;;;;15.40;8.32;;;6.80;99.90;;;;;;11874787;29;20508;-82
2022/03/09 23:07:46;;;;;;;13.02;7.80;;;6.70;99.90;;;;;;11886822;29;20880;-82
2022/03/09 23:13:48;;;;;;;13.10;7.65;;;6.20;99.90;;;;;;11877266;29;20079;-82
2022/03/09 23:19:49;;;;;;;13.98;8.00;;;5.60;99.90;;;;;;11876347;29;20108;-82
2022/03/09 23:25:51;;;;;;;14.23;8.10;;;5.40;99.90;;;;;;11876539;29;20055;-82
2022/03/09 23:31:53;;;;;;;12.35;7.97;;;5.00;99.90;;;;;;11894807;29;20123;-82
2022/03/09 23:37:56;;;;;;;13.80;8.55;;;4.80;99.90;;;;;;11881217;29;20163;-82
2022/03/09 23:43:58;;;;;;;14.57;7.80;;;4.50;99.90;;;;;;11881863;29;20108;-81
2022/03/09 23:50:00;;;;;;;14.07;7.57;;;4.40;99.90;;;;;;11887360;29;20054;-82
2022/03/09 23:56:02;;;;;;;16.55;7.97;;;4.40;99.90;;;;;;11881600;29;20099;-81
